Terminal Aerodrome Forecast
Issued by NWS

Home | Current Version | Previous Version | Text Only | Print | Product List | Glossary On
Versions: 1 2 3 4 5 6 7 8 9 10 11 12 13 14 15 16 17 18
752
FTUS42 TJSJ 301930 AAA
TAFIST
TAF AMD
TIST 301930Z 3020/0118 10013KT P6SM FEW012 OVC060
      TEMPO 3020/3021 BKN040
     FM302330 10009KT P6SM VCSH FEW025 BKN060 BKN120=

USA.gov is the U.S. government's official web portal to all federal, state and local government web resources and services.